Time;durP1;ratioP1;P1;durP2;ratioP2;P2;SDS_P1;SDS_P2;PMS_P1;PMS_P2;Temp;Humidity;BMP_temperature;BMP_pressure;BME280_temperature;BME280_humidity;BME280_pressure;Samples;Min_cycle;Max_cycle;Signal;HPM_P1;HPM_P2
2021/12/05 00:19:09;;;;;;;;;0.00;0.00;;;;;;;;5012055;28;45902;-74
2021/12/05 00:24:14;;;;;;;;;0.00;0.00;;;;;;;;5014627;28;45317;-76
2021/12/05 00:26:41;;;;;;;;;0.00;0.00;;;;;;;;5018574;28;45467;-75
2021/12/05 00:29:26;;;;;;;;;0.00;0.00;;;;;;;;5012990;28;45585;-75
2021/12/05 00:32:00;;;;;;;;;0.00;0.00;;;;;;;;5021733;28;45456;-77
2021/12/05 00:42:31;;;;;;;;;0.00;0.00;;;;;;;;5007336;28;45778;-75
2021/12/05 00:50:48;;;;;;;;;0.00;0.00;;;;;;;;5049252;28;45405;-76
2021/12/05 01:03:31;;;;;;;;;0.50;0.50;;;;;;;;5056019;28;45465;-75
2021/12/05 01:16:34;;;;;;;;;0.00;0.00;;;;;;;;5043380;28;45508;-75
2021/12/05 01:18:59;;;;;;;;;0.00;0.00;;;;;;;;5064262;28;45490;-74
2021/12/05 01:21:25;;;;;;;;;2.00;1.00;;;;;;;;5056455;28;45843;-76
2021/12/05 01:23:59;;;;;;;;;1.00;0.00;;;;;;;;5057580;28;45518;-75
2021/12/05 01:26:41;;;;;;;;;0.00;0.00;;;;;;;;5063489;28;45453;-75
2021/12/05 01:29:19;;;;;;;;;0.00;0.00;;;;;;;;5055684;28;45272;-76
2021/12/05 01:37:15;;;;;;;;;0.00;0.00;;;;;;;;5045304;28;45403;-75
2021/12/05 01:55:42;;;;;;;;;0.00;0.00;;;;;;;;5052623;28;45452;-74
2021/12/05 02:16:45;;;;;;;;;0.75;0.75;;;;;;;;5044316;28;45383;-77
2021/12/05 02:45:24;;;;;;;;;1.25;1.00;;;;;;;;4999893;28;46238;-75
2021/12/05 02:47:52;;;;;;;;;1.50;0.25;;;;;;;;4995968;28;45479;-77
2021/12/05 02:50:18;;;;;;;;;0.00;0.00;;;;;;;;4995106;28;45457;-77
2021/12/05 02:52:44;;;;;;;;;2.75;0.00;;;;;;;;5000929;28;45410;-77
2021/12/05 02:55:11;;;;;;;;;0.00;0.00;;;;;;;;5007794;28;45443;-78
2021/12/05 03:00:12;;;;;;;;;0.00;0.00;;;;;;;;4991335;28;45423;-77
2021/12/05 03:02:41;;;;;;;;;0.25;0.00;;;;;;;;4995193;28;45554;-76
2021/12/05 03:05:10;;;;;;;;;1.50;0.00;;;;;;;;5001074;28;47650;-77
2021/12/05 03:07:40;;;;;;;;;0.00;0.00;;;;;;;;4992720;28;45325;-77
2021/12/05 03:10:06;;;;;;;;;1.00;0.00;;;;;;;;4997741;28;45390;-77
2021/12/05 03:12:34;;;;;;;;;0.50;0.00;;;;;;;;5016233;28;45722;-78
2021/12/05 03:15:00;;;;;;;;;1.00;0.00;;;;;;;;5052725;28;45431;-78
2021/12/05 03:17:25;;;;;;;;;2.00;0.00;;;;;;;;5055362;28;46728;-75
2021/12/05 03:19:51;;;;;;;;;0.00;0.00;;;;;;;;5055826;28;45533;-77
2021/12/05 03:22:16;;;;;;;;;0.00;0.00;;;;;;;;5055781;28;45240;-77
2021/12/05 03:24:42;;;;;;;;;1.00;0.00;;;;;;;;5054753;28;47862;-77
2021/12/05 03:27:07;;;;;;;;;1.00;0.00;;;;;;;;5055406;28;45470;-77
2021/12/05 03:29:33;;;;;;;;;0.75;0.75;;;;;;;;5054914;28;45276;-75
2021/12/05 03:31:58;;;;;;;;;0.00;0.00;;;;;;;;5055340;28;45297;-75
2021/12/05 03:34:24;;;;;;;;;0.00;0.00;;;;;;;;5053605;28;47073;-75
2021/12/05 03:36:53;;;;;;;;;0.00;0.00;;;;;;;;5055992;28;45343;-77
2021/12/05 03:39:18;;;;;;;;;1.00;0.00;;;;;;;;5055495;28;45494;-76
2021/12/05 03:41:44;;;;;;;;;0.00;0.00;;;;;;;;5055030;28;45288;-76
2021/12/05 03:44:11;;;;;;;;;0.00;0.00;;;;;;;;5054588;28;45709;-75
2021/12/05 03:46:37;;;;;;;;;0.00;0.00;;;;;;;;5055155;28;45482;-77
2021/12/05 03:49:05;;;;;;;;;0.50;0.00;;;;;;;;5055723;28;45331;-76
2021/12/05 03:51:32;;;;;;;;;1.00;1.00;;;;;;;;5055893;28;45378;-76
2021/12/05 03:53:58;;;;;;;;;0.00;0.00;;;;;;;;5055265;28;47200;-77
2021/12/05 03:56:23;;;;;;;;;1.00;0.00;;;;;;;;5055690;28;45539;-77
2021/12/05 03:58:49;;;;;;;;;0.00;0.00;;;;;;;;5054857;28;45420;-77
2021/12/05 04:01:14;;;;;;;;;0.00;0.00;;;;;;;;5055084;28;45302;-77
2021/12/05 04:03:40;;;;;;;;;0.00;0.00;;;;;;;;5055315;28;46906;-76
2021/12/05 04:06:06;;;;;;;;;0.00;0.00;;;;;;;;5054744;28;45516;-77
2021/12/05 04:08:32;;;;;;;;;1.00;0.00;;;;;;;;5055155;28;45498;-77
2021/12/05 04:11:00;;;;;;;;;0.00;0.00;;;;;;;;5054714;28;45521;-77
2021/12/05 04:13:26;;;;;;;;;0.00;0.00;;;;;;;;5054348;28;46932;-77
2021/12/05 04:15:52;;;;;;;;;0.00;0.00;;;;;;;;5055020;28;45327;-77
2021/12/05 04:18:18;;;;;;;;;0.00;0.00;;;;;;;;5054930;28;45392;-77
2021/12/05 04:20:44;;;;;;;;;1.00;0.00;;;;;;;;5054106;28;45478;-77
2021/12/05 04:23:09;;;;;;;;;0.00;0.00;;;;;;;;5054366;28;45505;-76
2021/12/05 04:25:36;;;;;;;;;0.00;0.00;;;;;;;;5054573;28;45476;-78
2021/12/05 04:28:02;;;;;;;;;0.75;0.00;;;;;;;;5054827;28;45463;-77
2021/12/05 04:30:28;;;;;;;;;0.50;0.00;;;;;;;;5054027;28;45526;-77
2021/12/05 04:32:53;;;;;;;;;0.00;0.00;;;;;;;;5053070;28;46982;-75
2021/12/05 04:35:18;;;;;;;;;0.75;0.00;;;;;;;;5054139;28;45351;-78
2021/12/05 04:37:44;;;;;;;;;0.00;0.00;;;;;;;;5054547;28;45433;-77
2021/12/05 04:40:10;;;;;;;;;1.00;1.00;;;;;;;;5054648;28;45446;-76
2021/12/05 04:42:35;;;;;;;;;0.00;0.00;;;;;;;;5054930;28;46203;-77
2021/12/05 04:45:02;;;;;;;;;1.75;0.00;;;;;;;;5054490;28;45399;-77
2021/12/05 04:47:28;;;;;;;;;0.00;0.00;;;;;;;;5054685;28;45439;-77
2021/12/05 04:49:53;;;;;;;;;1.00;0.00;;;;;;;;5054268;28;45477;-77
2021/12/05 04:52:18;;;;;;;;;0.25;0.00;;;;;;;;5054549;28;46234;-78
2021/12/05 04:54:43;;;;;;;;;0.00;0.00;;;;;;;;5054899;28;45333;-77
2021/12/05 04:57:09;;;;;;;;;0.00;0.00;;;;;;;;5053747;28;45424;-77
2021/12/05 04:59:36;;;;;;;;;0.00;0.00;;;;;;;;5054554;28;45403;-77
2021/12/05 05:02:03;;;;;;;;;0.00;0.00;;;;;;;;5054340;28;46372;-76
2021/12/05 05:04:29;;;;;;;;;0.25;0.00;;;;;;;;5054128;28;45463;-77
2021/12/05 05:07:07;;;;;;;;;0.00;0.00;;;;;;;;5054902;28;45527;-74
2021/12/05 05:09:32;;;;;;;;;0.00;0.00;;;;;;;;5054671;28;45303;-77
2021/12/05 05:11:57;;;;;;;;;0.00;0.00;;;;;;;;5054016;28;45441;-76
2021/12/05 05:14:23;;;;;;;;;0.00;0.00;;;;;;;;5053857;28;45443;-74
2021/12/05 05:16:53;;;;;;;;;0.00;0.00;;;;;;;;5054139;28;45391;-75
2021/12/05 05:19:21;;;;;;;;;0.00;0.00;;;;;;;;5054354;28;45504;-76
2021/12/05 05:22:04;;;;;;;;;0.00;0.00;;;;;;;;5054755;28;45449;-76
2021/12/05 05:41:23;;;;;;;;;0.00;0.00;;;;;;;;5042258;28;45443;-76
2021/12/05 05:46:08;;;;;;;;;0.00;0.00;;;;;;;;5057376;28;45300;-76
2021/12/05 05:51:02;;;;;;;;;0.50;0.50;;;;;;;;5056987;28;45409;-78
2021/12/05 05:53:27;;;;;;;;;0.50;0.00;;;;;;;;5056438;28;45713;-77
2021/12/05 05:55:54;;;;;;;;;0.00;0.00;;;;;;;;5056512;28;45518;-76
2021/12/05 05:58:23;;;;;;;;;0.00;0.00;;;;;;;;5057684;28;45437;-74
2021/12/05 06:01:14;;;;;;;;;0.00;0.00;;;;;;;;5057752;28;45384;-77
2021/12/05 06:03:36;;;;;;;;;0.00;0.00;;;;;;;;5057474;28;45940;-77
2021/12/05 06:06:07;;;;;;;;;2.00;0.00;;;;;;;;5056840;28;45354;-77
2021/12/05 06:08:38;;;;;;;;;0.00;0.00;;;;;;;;5054973;28;45293;-76
2021/12/05 06:11:05;;;;;;;;;1.25;0.00;;;;;;;;5057000;28;45355;-77
2021/12/05 06:13:31;;;;;;;;;1.50;0.00;;;;;;;;5056713;28;47281;-77
2021/12/05 06:15:56;;;;;;;;;0.00;0.00;;;;;;;;5056957;28;45366;-76
2021/12/05 06:18:22;;;;;;;;;1.00;0.00;;;;;;;;5056953;28;45432;-77
2021/12/05 06:20:47;;;;;;;;;0.00;0.00;;;;;;;;5056614;28;45465;-77
2021/12/05 06:23:13;;;;;;;;;0.75;0.00;;;;;;;;5055956;28;45464;-76
2021/12/05 06:25:40;;;;;;;;;0.00;0.00;;;;;;;;5056808;28;45417;-76
2021/12/05 06:28:11;;;;;;;;;1.00;1.00;;;;;;;;5056108;28;45356;-76
2021/12/05 06:39:22;;;;;;;;;0.50;0.50;;;;;;;;5055503;28;45434;-76
2021/12/05 06:41:34;;;;;;;;;0.00;0.00;;;;;;;;5044484;28;45485;-76
2021/12/05 06:46:43;;;;;;;;;0.00;0.00;;;;;;;;5056050;28;45492;-75
2021/12/05 06:49:10;;;;;;;;;2.00;0.00;;;;;;;;5056292;28;45552;-75
2021/12/05 06:51:35;;;;;;;;;0.50;0.50;;;;;;;;5054351;28;45593;-75
2021/12/05 06:54:01;;;;;;;;;0.00;0.00;;;;;;;;5054854;28;45319;-76
2021/12/05 06:56:26;;;;;;;;;1.00;0.00;;;;;;;;5055999;28;45360;-74
2021/12/05 06:58:51;;;;;;;;;0.00;0.00;;;;;;;;5055248;28;45552;-75
2021/12/05 07:01:17;;;;;;;;;0.00;0.00;;;;;;;;5055568;28;45737;-75
2021/12/05 07:03:45;;;;;;;;;0.00;0.00;;;;;;;;5055803;28;45874;-75
2021/12/05 07:06:12;;;;;;;;;0.50;0.00;;;;;;;;5055164;28;45502;-75
2021/12/05 07:08:40;;;;;;;;;2.00;1.00;;;;;;;;5054964;28;45505;-76
2021/12/05 07:11:30;;;;;;;;;0.00;0.00;;;;;;;;5055099;28;45478;-76
2021/12/05 07:17:07;;;;;;;;;1.75;0.00;;;;;;;;5039674;28;45538;-76
2021/12/05 07:21:57;;;;;;;;;0.00;0.00;;;;;;;;5051904;28;45334;-76
2021/12/05 07:40:25;;;;;;;;;0.00;0.00;;;;;;;;5053360;28;45400;-76
2021/12/05 07:42:52;;;;;;;;;0.50;0.50;;;;;;;;5044140;28;45464;-76
2021/12/05 07:45:21;;;;;;;;;1.00;1.00;;;;;;;;5053952;28;45483;-76
2021/12/05 07:47:51;;;;;;;;;0.25;0.00;;;;;;;;5054601;28;46808;-75
2021/12/05 07:50:16;;;;;;;;;1.00;1.00;;;;;;;;5054478;28;45319;-76
2021/12/05 07:52:46;;;;;;;;;1.50;0.00;;;;;;;;5054746;28;45475;-76
2021/12/05 07:55:18;;;;;;;;;0.00;0.00;;;;;;;;5054586;28;46984;-78
2021/12/05 08:00:58;;;;;;;;;2.25;1.00;;;;;;;;4978559;28;45358;-76
2021/12/05 08:14:35;;;;;;;;;0.00;0.00;;;;;;;;4990901;28;45331;-76
2021/12/05 08:17:02;;;;;;;;;1.00;1.00;;;;;;;;4982137;28;47427;-75
2021/12/05 08:19:27;;;;;;;;;3.00;0.00;;;;;;;;4988415;28;45592;-76
2021/12/05 08:21:56;;;;;;;;;2.00;1.00;;;;;;;;4988867;28;45360;-77
2021/12/05 08:24:22;;;;;;;;;1.00;1.00;;;;;;;;4991026;28;45592;-77
2021/12/05 08:26:49;;;;;;;;;2.75;1.25;;;;;;;;4984392;28;46399;-76
2021/12/05 08:29:19;;;;;;;;;0.00;0.00;;;;;;;;4988547;28;45899;-77
2021/12/05 09:30:30;;;;;;;;;0.00;0.00;;;;;;;;5033913;28;46625;-78
2021/12/05 09:38:49;;;;;;;;;3.00;1.25;;;;;;;;5035548;28;45348;-76
2021/12/05 10:19:55;;;;;;;;;1.00;1.00;;;;;;;;4993612;28;45380;-78
2021/12/05 10:38:29;;;;;;;;;1.50;1.00;;;;;;;;5054923;28;45247;-78
2021/12/05 10:43:42;;;;;;;;;2.00;2.00;;;;;;;;4999158;28;45530;-77
2021/12/05 10:46:09;;;;;;;;;1.00;1.00;;;;;;;;5013009;28;46322;-77
2021/12/05 10:48:36;;;;;;;;;2.00;2.00;;;;;;;;5013615;28;45325;-78
2021/12/05 10:51:09;;;;;;;;;1.00;0.00;;;;;;;;5013325;28;45482;-79
2021/12/05 10:53:37;;;;;;;;;2.50;1.50;;;;;;;;5013012;28;45329;-79
2021/12/05 10:56:05;;;;;;;;;2.00;2.00;;;;;;;;5012943;28;46283;-78
2021/12/05 10:58:50;;;;;;;;;5.00;0.00;;;;;;;;5012225;28;45487;-78
2021/12/05 11:01:19;;;;;;;;;1.00;1.00;;;;;;;;5011326;28;45548;-78
2021/12/05 11:03:49;;;;;;;;;2.00;2.00;;;;;;;;5013464;28;45520;-81
2021/12/05 11:06:17;;;;;;;;;2.00;1.00;;;;;;;;5013032;28;46298;-81
2021/12/05 11:08:42;;;;;;;;;1.50;1.50;;;;;;;;5012850;28;45656;-81
2021/12/05 11:11:12;;;;;;;;;2.00;2.00;;;;;;;;5013127;28;45636;-80
2021/12/05 11:13:38;;;;;;;;;3.00;1.00;;;;;;;;5012434;28;45605;-81
2021/12/05 11:16:26;;;;;;;;;1.00;1.00;;;;;;;;5012242;28;46983;-82
2021/12/05 11:18:51;;;;;;;;;2.00;1.00;;;;;;;;5012706;28;45492;-79
2021/12/05 11:21:22;;;;;;;;;4.00;2.75;;;;;;;;5040921;28;45370;-78
2021/12/05 11:24:03;;;;;;;;;2.00;2.00;;;;;;;;5054744;28;45519;-77
2021/12/05 11:26:29;;;;;;;;;1.25;1.00;;;;;;;;5054334;28;46541;-77
2021/12/05 11:28:55;;;;;;;;;2.00;2.00;;;;;;;;5053766;28;45487;-76
2021/12/05 11:31:27;;;;;;;;;2.00;2.00;;;;;;;;5054950;28;45531;-81
2021/12/05 11:33:57;;;;;;;;;2.50;1.25;;;;;;;;5051323;28;45676;-81
2021/12/05 11:36:23;;;;;;;;;2.75;2.75;;;;;;;;5054288;28;46143;-78
2021/12/05 11:38:49;;;;;;;;;2.50;2.50;;;;;;;;5054764;28;45580;-80
2021/12/05 11:41:20;;;;;;;;;3.75;3.50;;;;;;;;5054533;28;45748;-80
2021/12/05 11:43:47;;;;;;;;;3.25;3.25;;;;;;;;5055371;28;45531;-79
2021/12/05 11:46:16;;;;;;;;;1.75;1.75;;;;;;;;5055183;28;45370;-80
2021/12/05 11:48:43;;;;;;;;;4.50;3.00;;;;;;;;5057056;28;45416;-78
2021/12/05 11:51:28;;;;;;;;;3.25;3.00;;;;;;;;5055764;27;45349;-85
2021/12/05 11:53:55;;;;;;;;;4.00;2.00;;;;;;;;5054865;28;45441;-82
2021/12/05 11:56:27;;;;;;;;;1.75;1.75;;;;;;;;5054675;28;46078;-80
2021/12/05 11:59:07;;;;;;;;;1.25;1.25;;;;;;;;5055089;28;45491;-79
2021/12/05 12:01:38;;;;;;;;;1.00;1.00;;;;;;;;5051330;28;45244;-79
2021/12/05 12:04:04;;;;;;;;;1.75;1.75;;;;;;;;5056683;28;45415;-80
2021/12/05 12:06:29;;;;;;;;;2.75;1.00;;;;;;;;5057043;28;45882;-82
2021/12/05 12:08:55;;;;;;;;;1.25;1.25;;;;;;;;5058663;28;45313;-80
2021/12/05 12:11:21;;;;;;;;;1.75;1.75;;;;;;;;5059439;28;45281;-80
2021/12/05 12:13:47;;;;;;;;;5.00;5.00;;;;;;;;5058224;28;45429;-81
2021/12/05 12:16:13;;;;;;;;;0.00;0.00;;;;;;;;5056230;28;45366;-79
2021/12/05 12:18:43;;;;;;;;;2.75;2.75;;;;;;;;5054899;28;45341;-76
2021/12/05 12:21:11;;;;;;;;;1.00;1.00;;;;;;;;5055267;28;45418;-82
2021/12/05 12:23:36;;;;;;;;;0.00;0.00;;;;;;;;5049258;28;45533;-78
2021/12/05 12:26:03;;;;;;;;;0.75;0.75;;;;;;;;5053882;28;46957;-76
2021/12/05 12:28:28;;;;;;;;;3.25;2.00;;;;;;;;5053776;28;45380;-77
2021/12/05 12:30:56;;;;;;;;;1.75;1.75;;;;;;;;5053756;28;45694;-75
2021/12/05 12:33:27;;;;;;;;;1.25;0.25;;;;;;;;5053199;28;45542;-78
2021/12/05 12:35:52;;;;;;;;;3.00;3.00;;;;;;;;5053142;28;45557;-76
2021/12/05 12:38:20;;;;;;;;;1.00;1.00;;;;;;;;5053285;28;45543;-77
2021/12/05 12:40:45;;;;;;;;;1.50;1.50;;;;;;;;5053283;28;45587;-78
2021/12/05 12:43:30;;;;;;;;;1.00;1.00;;;;;;;;5053323;28;45460;-77
2021/12/05 12:45:55;;;;;;;;;2.00;2.00;;;;;;;;5049487;28;46879;-76
2021/12/05 12:48:28;;;;;;;;;3.50;1.25;;;;;;;;5052938;28;45424;-76
2021/12/05 12:50:53;;;;;;;;;3.75;2.75;;;;;;;;5053009;28;45510;-78
2021/12/05 12:53:21;;;;;;;;;3.75;2.00;;;;;;;;5052841;28;45261;-77
2021/12/05 12:55:56;;;;;;;;;1.00;1.00;;;;;;;;5052813;28;46344;-77
2021/12/05 12:58:55;;;;;;;;;1.00;1.00;;;;;;;;5054348;28;45356;-75
2021/12/05 13:12:41;;;;;;;;;1.50;1.50;;;;;;;;5011986;28;45628;-78
2021/12/05 13:15:09;;;;;;;;;2.00;2.00;;;;;;;;5006932;28;45685;-77
2021/12/05 13:17:42;;;;;;;;;1.75;1.75;;;;;;;;5006499;28;45571;-78
2021/12/05 13:20:09;;;;;;;;;1.75;1.75;;;;;;;;5011308;28;45450;-78
2021/12/05 13:22:54;;;;;;;;;1.00;1.00;;;;;;;;5011470;28;45384;-76
2021/12/05 13:25:20;;;;;;;;;3.00;3.00;;;;;;;;5011878;28;45470;-76
2021/12/05 13:27:45;;;;;;;;;1.50;1.00;;;;;;;;5007610;28;47192;-74
2021/12/05 13:30:11;;;;;;;;;3.50;2.00;;;;;;;;5006531;28;45572;-76
2021/12/05 13:32:37;;;;;;;;;4.00;4.00;;;;;;;;5006713;28;45467;-76
2021/12/05 13:35:12;;;;;;;;;3.00;2.50;;;;;;;;5006640;28;45447;-76
2021/12/05 13:37:42;;;;;;;;;2.00;2.00;;;;;;;;5034642;28;45719;-77
2021/12/05 13:40:12;;;;;;;;;1.25;1.25;;;;;;;;5054884;28;45442;-77
2021/12/05 13:42:45;;;;;;;;;5.25;4.00;;;;;;;;5055112;28;45407;-77
2021/12/05 13:45:13;;;;;;;;;3.00;2.00;;;;;;;;5067244;28;45492;-79
2021/12/05 13:47:41;;;;;;;;;2.00;2.00;;;;;;;;5073751;28;46462;-78
2021/12/05 13:50:18;;;;;;;;;2.00;1.75;;;;;;;;5073239;28;45966;-79
2021/12/05 13:52:49;;;;;;;;;3.25;2.00;;;;;;;;5070117;28;45515;-78
2021/12/05 13:55:36;;;;;;;;;3.00;3.00;;;;;;;;5068129;28;45397;-77
2021/12/05 13:58:17;;;;;;;;;3.00;2.00;;;;;;;;5067589;28;45321;-76
2021/12/05 14:00:44;;;;;;;;;8.00;7.00;;;;;;;;5072986;28;45379;-79
2021/12/05 14:03:09;;;;;;;;;2.00;0.50;;;;;;;;5072627;28;45566;-77
2021/12/05 14:05:35;;;;;;;;;5.00;5.00;;;;;;;;5064545;28;45451;-78
2021/12/05 14:08:01;;;;;;;;;4.25;4.25;;;;;;;;5071852;28;49070;-79
2021/12/05 14:10:26;;;;;;;;;3.00;3.00;;;;;;;;5071197;28;45228;-77
2021/12/05 14:12:52;;;;;;;;;2.00;2.00;;;;;;;;5063298;28;45474;-77
2021/12/05 14:15:18;;;;;;;;;2.00;2.00;;;;;;;;5063769;28;45600;-78
2021/12/05 14:17:45;;;;;;;;;6.50;6.50;;;;;;;;5063028;28;46358;-75
2021/12/05 14:20:12;;;;;;;;;3.00;3.00;;;;;;;;5059621;28;45604;-76
2021/12/05 14:22:38;;;;;;;;;2.25;2.00;;;;;;;;5055751;28;45474;-76
2021/12/05 14:25:15;;;;;;;;;3.75;3.50;;;;;;;;5055715;28;45498;-81
2021/12/05 14:27:45;;;;;;;;;3.50;3.50;;;;;;;;5055020;28;46249;-80
2021/12/05 14:30:12;;;;;;;;;7.50;5.50;;;;;;;;5054938;28;45548;-80
2021/12/05 14:32:39;;;;;;;;;6.25;5.50;;;;;;;;5055790;28;45481;-79
2021/12/05 14:35:12;;;;;;;;;4.75;3.25;;;;;;;;5055383;28;45514;-79
2021/12/05 14:37:39;;;;;;;;;4.00;4.00;;;;;;;;5055070;28;45791;-79
2021/12/05 14:40:30;;;;;;;;;2.25;2.25;;;;;;;;5055214;28;45545;-79
2021/12/05 14:42:59;;;;;;;;;2.25;1.75;;;;;;;;5052838;28;45446;-80
2021/12/05 14:45:26;;;;;;;;;3.00;2.75;;;;;;;;5054883;28;45539;-79
2021/12/05 14:47:53;;;;;;;;;2.50;2.50;;;;;;;;5055445;28;46970;-79
2021/12/05 14:50:18;;;;;;;;;4.25;3.00;;;;;;;;5055594;28;45378;-79
2021/12/05 14:52:45;;;;;;;;;4.00;2.50;;;;;;;;5055882;28;45245;-78
2021/12/05 14:55:12;;;;;;;;;4.75;3.00;;;;;;;;5053979;28;45419;-79
2021/12/05 14:57:45;;;;;;;;;3.75;3.75;;;;;;;;5053632;28;46370;-80
2021/12/05 15:00:24;;;;;;;;;4.25;1.00;;;;;;;;5055370;28;45362;-81
2021/12/05 15:02:57;;;;;;;;;2.00;2.00;;;;;;;;5055232;28;45514;-80
2021/12/05 15:05:23;;;;;;;;;2.00;2.00;;;;;;;;5053556;28;45462;-79
2021/12/05 15:07:49;;;;;;;;;2.25;2.00;;;;;;;;5054850;28;46714;-80
2021/12/05 15:10:19;;;;;;;;;2.50;2.50;;;;;;;;5054976;28;45364;-79
2021/12/05 15:12:44;;;;;;;;;3.00;3.00;;;;;;;;5055818;28;45260;-79
2021/12/05 15:15:11;;;;;;;;;4.25;4.25;;;;;;;;5054486;28;45554;-80
2021/12/05 15:17:38;;;;;;;;;3.50;3.00;;;;;;;;5054844;28;46053;-78
2021/12/05 15:20:09;;;;;;;;;6.00;6.00;;;;;;;;5054252;28;45529;-79
2021/12/05 15:22:35;;;;;;;;;4.00;3.00;;;;;;;;5054518;28;45356;-76
2021/12/05 15:25:02;;;;;;;;;5.00;5.00;;;;;;;;5054507;28;45463;-78
2021/12/05 15:27:30;;;;;;;;;6.25;4.00;;;;;;;;5054535;28;47077;-78
2021/12/05 15:29:57;;;;;;;;;6.75;6.75;;;;;;;;5053868;28;45358;-78
2021/12/05 15:32:24;;;;;;;;;6.00;4.75;;;;;;;;5054210;28;45407;-80
2021/12/05 15:34:54;;;;;;;;;8.75;6.25;;;;;;;;5050724;28;45534;-81
2021/12/05 15:37:20;;;;;;;;;4.75;4.75;;;;;;;;5054003;28;46212;-80
2021/12/05 15:39:47;;;;;;;;;6.25;5.75;;;;;;;;5054391;28;45364;-79
2021/12/05 15:42:20;;;;;;;;;5.75;5.75;;;;;;;;5054281;28;45299;-79
2021/12/05 15:44:46;;;;;;;;;10.50;6.75;;;;;;;;5054334;28;45339;-81
2021/12/05 15:47:31;;;;;;;;;11.00;9.75;;;;;;;;5054323;28;46173;-81
2021/12/05 15:49:59;;;;;;;;;8.50;7.00;;;;;;;;5055434;28;45524;-78
2021/12/05 15:52:40;;;;;;;;;6.50;4.50;;;;;;;;5039696;28;45398;-78
2021/12/05 15:55:11;;;;;;;;;7.25;6.25;;;;;;;;5055445;28;45328;-80
2021/12/05 15:57:39;;;;;;;;;5.25;5.25;;;;;;;;5054999;28;47127;-79
2021/12/05 16:00:10;;;;;;;;;11.50;9.75;;;;;;;;5058304;28;44799;-82
2021/12/05 16:02:36;;;;;;;;;6.00;6.00;;;;;;;;5053062;28;45562;-82
2021/12/05 16:05:02;;;;;;;;;5.25;4.00;;;;;;;;5058688;28;45487;-82
2021/12/05 16:07:29;;;;;;;;;7.75;7.50;;;;;;;;5056390;28;46392;-83
2021/12/05 16:10:18;;;;;;;;;7.75;5.25;;;;;;;;5055624;28;45400;-82
2021/12/05 16:12:46;;;;;;;;;6.50;6.50;;;;;;;;5048406;28;45524;-80
2021/12/05 16:15:18;;;;;;;;;8.00;7.00;;;;;;;;5058689;28;47646;-81
2021/12/05 16:17:52;;;;;;;;;10.75;10.00;;;;;;;;5043153;28;46339;-82
2021/12/05 16:20:19;;;;;;;;;2.75;2.75;;;;;;;;5044157;28;45638;-82
2021/12/05 16:23:17;;;;;;;;;10.50;10.00;;;;;;;;5037785;28;45481;-81
2021/12/05 16:25:55;;;;;;;;;9.00;7.25;;;;;;;;5004388;28;46851;-79
2021/12/05 16:28:36;;;;;;;;;7.25;7.25;;;;;;;;5001153;28;46532;-81
2021/12/05 16:31:25;;;;;;;;;10.50;9.00;;;;;;;;5007326;28;45763;-81
2021/12/05 16:33:55;;;;;;;;;11.25;8.50;;;;;;;;5008673;28;45568;-81
2021/12/05 16:36:21;;;;;;;;;7.75;7.75;;;;;;;;5007679;28;45591;-81
2021/12/05 16:38:50;;;;;;;;;5.00;5.00;;;;;;;;5006740;28;47102;-80
2021/12/05 16:41:25;;;;;;;;;5.75;4.75;;;;;;;;5011609;28;45575;-81
2021/12/05 16:44:25;;;;;;;;;6.00;6.00;;;;;;;;5009908;28;45482;-81
2021/12/05 16:46:57;;;;;;;;;8.25;8.25;;;;;;;;4969035;28;45554;-82
2021/12/05 16:49:25;;;;;;;;;13.75;13.00;;;;;;;;4970842;28;47194;-81
2021/12/05 16:51:50;;;;;;;;;9.00;9.00;;;;;;;;4971595;28;45576;-81
2021/12/05 16:54:17;;;;;;;;;8.00;8.00;;;;;;;;4971402;28;45527;-83
2021/12/05 16:56:47;;;;;;;;;6.00;5.75;;;;;;;;4970301;28;45584;-81
2021/12/05 16:59:15;;;;;;;;;5.75;5.75;;;;;;;;4970211;28;46898;-83
2021/12/05 17:01:40;;;;;;;;;10.00;7.50;;;;;;;;4992787;28;45558;-83
2021/12/05 17:04:06;;;;;;;;;6.00;4.50;;;;;;;;5001475;28;45766;-84
2021/12/05 17:06:44;;;;;;;;;5.00;3.00;;;;;;;;5003140;28;45475;-83
2021/12/05 17:09:11;;;;;;;;;4.00;4.00;;;;;;;;4981062;28;47397;-81
2021/12/05 17:11:38;;;;;;;;;4.00;4.00;;;;;;;;5003982;28;45549;-81
2021/12/05 17:14:04;;;;;;;;;5.00;5.00;;;;;;;;4998125;28;46374;-81
2021/12/05 17:16:30;;;;;;;;;8.50;7.25;;;;;;;;5003039;28;45611;-81
2021/12/05 17:19:03;;;;;;;;;6.00;6.00;;;;;;;;5001914;28;45543;-83
2021/12/05 17:21:30;;;;;;;;;6.50;5.50;;;;;;;;5033633;28;45493;-82
2021/12/05 17:23:55;;;;;;;;;6.25;4.50;;;;;;;;5050726;28;45553;-81
2021/12/05 17:26:24;;;;;;;;;9.00;6.75;;;;;;;;5045454;28;46244;-82
2021/12/05 17:28:52;;;;;;;;;9.75;7.50;;;;;;;;5043531;28;47181;-82
2021/12/05 17:31:23;;;;;;;;;7.50;7.50;;;;;;;;5045944;28;45377;-81
2021/12/05 17:33:53;;;;;;;;;9.50;7.75;;;;;;;;5048449;28;45576;-83
2021/12/05 17:36:20;;;;;;;;;8.75;8.50;;;;;;;;5058683;28;45761;-86
2021/12/05 17:38:45;;;;;;;;;7.25;6.00;;;;;;;;5060370;28;46215;-83
2021/12/05 17:41:11;;;;;;;;;17.50;16.00;;;;;;;;5053732;28;45565;-84
2021/12/05 17:43:36;;;;;;;;;9.00;9.00;;;;;;;;5057571;28;45384;-83
2021/12/05 17:46:02;;;;;;;;;6.75;6.75;;;;;;;;5056981;28;45456;-83
2021/12/05 17:48:28;;;;;;;;;6.00;6.00;;;;;;;;5049638;28;45932;-83
2021/12/05 17:51:02;;;;;;;;;5.25;5.25;;;;;;;;5048428;28;45513;-84
2021/12/05 17:53:31;;;;;;;;;10.25;9.50;;;;;;;;5053572;28;45637;-84
2021/12/05 17:56:11;;;;;;;;;9.50;9.50;;;;;;;;5045619;28;45521;-86
2021/12/05 17:59:05;;;;;;;;;10.00;10.00;;;;;;;;5049877;28;45398;-82
2021/12/05 18:04:09;;;;;;;;;9.50;8.50;;;;;;;;5049062;28;45411;-83
2021/12/05 18:06:35;;;;;;;;;9.75;7.00;;;;;;;;5051931;28;45753;-83
2021/12/05 18:09:00;;;;;;;;;11.75;7.25;;;;;;;;5043303;28;45683;-83
2021/12/05 18:11:26;;;;;;;;;7.50;7.50;;;;;;;;5048651;28;45438;-82
2021/12/05 18:13:55;;;;;;;;;6.50;5.25;;;;;;;;5047376;28;45577;-84
2021/12/05 18:16:25;;;;;;;;;9.50;8.25;;;;;;;;5044277;28;45544;-80
2021/12/05 18:18:51;;;;;;;;;10.00;8.25;;;;;;;;5042568;28;46285;-84
2021/12/05 18:21:18;;;;;;;;;8.25;8.25;;;;;;;;5042483;28;45474;-83
2021/12/05 18:23:43;;;;;;;;;10.00;8.00;;;;;;;;5054442;28;45392;-83
2021/12/05 18:26:09;;;;;;;;;8.25;7.50;;;;;;;;5046467;28;45368;-83
2021/12/05 18:28:35;;;;;;;;;11.25;9.25;;;;;;;;5050392;28;46256;-82
2021/12/05 18:31:02;;;;;;;;;11.75;9.25;;;;;;;;5045901;28;45438;-82
2021/12/05 18:33:29;;;;;;;;;11.75;11.75;;;;;;;;5042034;28;45608;-81
2021/12/05 18:35:55;;;;;;;;;7.25;7.25;;;;;;;;5045419;28;45458;-82
2021/12/05 18:38:22;;;;;;;;;8.25;7.25;;;;;;;;5052653;28;46881;-80
2021/12/05 18:40:50;;;;;;;;;10.75;9.00;;;;;;;;5051845;28;45474;-84
2021/12/05 18:43:18;;;;;;;;;7.50;7.00;;;;;;;;5045664;28;45343;-84
2021/12/05 18:45:43;;;;;;;;;7.00;7.00;;;;;;;;5044574;28;45471;-82
2021/12/05 18:48:10;;;;;;;;;6.00;5.75;;;;;;;;5052063;28;46428;-78
2021/12/05 18:50:36;;;;;;;;;11.50;10.50;;;;;;;;5049530;28;45735;-85
2021/12/05 18:53:01;;;;;;;;;11.00;9.50;;;;;;;;5050196;28;45432;-83
2021/12/05 18:55:32;;;;;;;;;12.50;9.25;;;;;;;;5045746;28;45462;-86
2021/12/05 18:57:59;;;;;;;;;11.25;10.25;;;;;;;;5039265;28;46796;-84
2021/12/05 19:00:31;;;;;;;;;10.75;8.50;;;;;;;;5042430;28;45397;-82
2021/12/05 19:05:52;;;;;;;;;10.50;8.00;;;;;;;;5050374;28;45595;-83
2021/12/05 19:13:38;;;;;;;;;10.25;9.25;;;;;;;;5039980;28;45461;-82
2021/12/05 19:16:04;;;;;;;;;10.00;10.00;;;;;;;;5052825;28;45597;-83
2021/12/05 19:18:29;;;;;;;;;10.00;7.25;;;;;;;;5055436;28;46042;-82
2021/12/05 19:20:54;;;;;;;;;13.00;12.50;;;;;;;;5054643;28;45367;-82
2021/12/05 19:23:20;;;;;;;;;10.75;10.50;;;;;;;;5056243;28;45577;-83
2021/12/05 19:25:45;;;;;;;;;14.00;13.75;;;;;;;;5055308;28;45430;-84
2021/12/05 19:28:10;;;;;;;;;11.75;11.75;;;;;;;;5054095;28;46024;-83
2021/12/05 19:30:38;;;;;;;;;14.00;11.75;;;;;;;;5056034;28;45426;-81
2021/12/05 19:33:05;;;;;;;;;10.75;10.75;;;;;;;;5055063;28;45360;-82
2021/12/05 19:35:32;;;;;;;;;11.75;11.00;;;;;;;;5055358;28;45394;-81
2021/12/05 19:37:57;;;;;;;;;11.50;10.25;;;;;;;;5054010;28;46092;-78
2021/12/05 19:40:24;;;;;;;;;10.00;8.75;;;;;;;;5053343;28;45458;-78
2021/12/05 19:42:50;;;;;;;;;10.75;10.50;;;;;;;;5055472;28;45276;-78
2021/12/05 19:45:16;;;;;;;;;9.75;9.00;;;;;;;;5054470;28;45365;-77
2021/12/05 19:47:41;;;;;;;;;10.75;10.00;;;;;;;;5054235;28;46971;-79
2021/12/05 19:50:09;;;;;;;;;6.75;6.75;;;;;;;;5051529;28;45462;-77
2021/12/05 19:52:34;;;;;;;;;9.75;7.50;;;;;;;;5054154;28;45457;-77
2021/12/05 19:54:59;;;;;;;;;10.25;9.00;;;;;;;;5054536;28;45292;-78
2021/12/05 19:57:25;;;;;;;;;9.00;6.25;;;;;;;;5053888;28;45994;-77
2021/12/05 19:59:50;;;;;;;;;6.00;5.75;;;;;;;;5054712;28;45505;-83
2021/12/05 20:02:15;;;;;;;;;8.25;8.25;;;;;;;;5054530;28;45730;-78
2021/12/05 20:04:43;;;;;;;;;8.25;8.25;;;;;;;;5054431;28;45376;-78
2021/12/05 20:07:08;;;;;;;;;11.75;11.75;;;;;;;;5054707;28;47104;-78
2021/12/05 20:09:34;;;;;;;;;5.00;5.00;;;;;;;;5054416;28;45402;-77
2021/12/05 20:11:59;;;;;;;;;6.75;6.25;;;;;;;;5054388;28;47125;-77
2021/12/05 20:14:26;;;;;;;;;5.00;5.00;;;;;;;;5054259;28;45483;-76
2021/12/05 20:16:51;;;;;;;;;7.75;6.00;;;;;;;;5053891;28;46917;-77
2021/12/05 20:19:17;;;;;;;;;8.25;6.00;;;;;;;;5053908;28;45593;-77
2021/12/05 20:21:43;;;;;;;;;8.25;6.75;;;;;;;;5055201;28;45382;-77
2021/12/05 20:24:10;;;;;;;;;8.75;5.75;;;;;;;;5043116;28;45531;-76
2021/12/05 20:26:35;;;;;;;;;8.25;8.25;;;;;;;;5047694;28;46309;-77